sensor_id;sensor_type;location;lat;lon;timestamp;noise_LAeq;noise_LA_min;noise_LA_max;noise_LA01;noise_LA95
66888;Laerm;53798;51.680;5.976;2022-08-21T00:00:28;50.61;40.67;59.08;;
66888;Laerm;53798;51.680;5.976;2022-08-21T00:03:07;57.59;40.56;75.33;;
66888;Laerm;53798;51.680;5.976;2022-08-21T00:05:44;50.08;36.45;64.81;;
66888;Laerm;53798;51.680;5.976;2022-08-21T00:08:12;55.25;36.51;67.05;;
66888;Laerm;53798;51.680;5.976;2022-08-21T00:10:41;47.54;34.94;63.66;;
66888;Laerm;53798;51.680;5.976;2022-08-21T00:13:10;49.23;39.18;58.72;;
66888;Laerm;53798;51.680;5.976;2022-08-21T00:15:43;59.43;38.47;78.35;;
66888;Laerm;53798;51.680;5.976;2022-08-21T00:18:10;47.63;39.11;56.91;;
66888;Laerm;53798;51.680;5.976;2022-08-21T00:20:40;48.52;39.43;61.71;;
66888;Laerm;53798;51.680;5.976;2022-08-21T00:23:08;48.64;39.72;57.19;;
66888;Laerm;53798;51.680;5.976;2022-08-21T00:25:36;49.57;40.90;57.28;;
66888;Laerm;53798;51.680;5.976;2022-08-21T00:28:04;50.49;40.34;56.39;;
66888;Laerm;53798;51.680;5.976;2022-08-21T00:30:33;49.80;40.40;58.40;;
66888;Laerm;53798;51.680;5.976;2022-08-21T00:33:01;47.23;38.94;53.24;;
66888;Laerm;53798;51.680;5.976;2022-08-21T00:35:34;48.63;39.90;56.32;;
66888;Laerm;53798;51.680;5.976;2022-08-21T00:38:03;46.55;38.97;55.11;;
66888;Laerm;53798;51.680;5.976;2022-08-21T00:40:48;61.28;38.86;78.77;;
66888;Laerm;53798;51.680;5.976;2022-08-21T00:43:20;47.25;36.62;60.78;;
66888;Laerm;53798;51.680;5.976;2022-08-21T00:45:51;58.60;37.28;77.43;;
66888;Laerm;53798;51.680;5.976;2022-08-21T00:48:21;48.58;38.37;56.09;;
66888;Laerm;53798;51.680;5.976;2022-08-21T00:51:03;49.60;41.26;57.80;;
66888;Laerm;53798;51.680;5.976;2022-08-21T00:53:32;50.99;40.07;60.41;;
66888;Laerm;53798;51.680;5.976;2022-08-21T00:56:00;50.22;39.62;57.58;;
66888;Laerm;53798;51.680;5.976;2022-08-21T00:58:33;49.48;36.87;57.51;;
66888;Laerm;53798;51.680;5.976;2022-08-21T01:01:05;50.21;39.91;57.65;;
66888;Laerm;53798;51.680;5.976;2022-08-21T01:03:36;57.55;37.59;75.24;;
66888;Laerm;53798;51.680;5.976;2022-08-21T01:06:05;48.72;36.21;57.65;;
66888;Laerm;53798;51.680;5.976;2022-08-21T01:08:33;52.62;38.29;75.97;;
66888;Laerm;53798;51.680;5.976;2022-08-21T01:11:02;50.59;38.45;72.25;;
66888;Laerm;53798;51.680;5.976;2022-08-21T01:13:36;49.08;38.08;59.82;;
66888;Laerm;53798;51.680;5.976;2022-08-21T01:16:08;48.87;39.62;58.00;;
66888;Laerm;53798;51.680;5.976;2022-08-21T01:18:36;55.50;37.15;72.77;;
66888;Laerm;53798;51.680;5.976;2022-08-21T01:21:08;49.90;39.20;58.00;;
66888;Laerm;53798;51.680;5.976;2022-08-21T01:23:43;56.58;41.42;76.19;;
66888;Laerm;53798;51.680;5.976;2022-08-21T01:26:15;59.90;37.39;79.75;;
66888;Laerm;53798;51.680;5.976;2022-08-21T01:29:00;47.10;35.86;58.72;;
66888;Laerm;53798;51.680;5.976;2022-08-21T01:31:29;48.40;39.97;57.12;;
66888;Laerm;53798;51.680;5.976;2022-08-21T01:33:59;62.76;37.34;82.80;;
66888;Laerm;53798;51.680;5.976;2022-08-21T01:36:27;60.63;39.87;80.77;;
66888;Laerm;53798;51.680;5.976;2022-08-21T01:38:55;44.69;37.08;54.07;;
66888;Laerm;53798;51.680;5.976;2022-08-21T01:41:23;44.55;36.79;51.22;;
66888;Laerm;53798;51.680;5.976;2022-08-21T01:43:50;42.81;36.61;50.37;;
66888;Laerm;53798;51.680;5.976;2022-08-21T01:46:17;42.16;36.26;47.08;;
66888;Laerm;53798;51.680;5.976;2022-08-21T01:48:45;41.41;36.26;46.67;;
66888;Laerm;53798;51.680;5.976;2022-08-21T01:51:13;63.83;37.91;86.47;;
66888;Laerm;53798;51.680;5.976;2022-08-21T01:53:41;43.26;38.40;48.96;;
66888;Laerm;53798;51.680;5.976;2022-08-21T01:56:12;41.84;36.89;49.53;;
66888;Laerm;53798;51.680;5.976;2022-08-21T01:58:42;43.97;37.25;50.93;;
66888;Laerm;53798;51.680;5.976;2022-08-21T02:01:10;44.26;39.19;50.62;;
66888;Laerm;53798;51.680;5.976;2022-08-21T02:03:39;44.45;38.11;50.57;;
66888;Laerm;53798;51.680;5.976;2022-08-21T02:06:12;44.45;35.37;51.01;;
66888;Laerm;53798;51.680;5.976;2022-08-21T02:08:40;43.10;36.13;50.40;;
66888;Laerm;53798;51.680;5.976;2022-08-21T02:11:07;42.02;35.39;48.39;;
66888;Laerm;53798;51.680;5.976;2022-08-21T02:13:34;42.06;36.38;51.82;;
66888;Laerm;53798;51.680;5.976;2022-08-21T02:16:04;42.16;35.21;53.23;;
66888;Laerm;53798;51.680;5.976;2022-08-21T02:18:31;57.17;35.84;74.23;;
66888;Laerm;53798;51.680;5.976;2022-08-21T02:20:59;40.92;36.23;47.50;;
66888;Laerm;53798;51.680;5.976;2022-08-21T02:23:26;36.92;33.75;43.59;;
66888;Laerm;53798;51.680;5.976;2022-08-21T02:25:57;35.98;32.14;43.61;;
66888;Laerm;53798;51.680;5.976;2022-08-21T02:28:25;35.18;32.35;46.13;;
66888;Laerm;53798;51.680;5.976;2022-08-21T02:30:55;36.55;32.50;47.09;;
66888;Laerm;53798;51.680;5.976;2022-08-21T02:33:26;36.40;33.10;42.66;;
66888;Laerm;53798;51.680;5.976;2022-08-21T02:35:54;37.42;34.00;44.78;;
66888;Laerm;53798;51.680;5.976;2022-08-21T02:38:28;37.78;34.69;46.45;;
66888;Laerm;53798;51.680;5.976;2022-08-21T02:40:57;56.49;34.48;75.41;;
66888;Laerm;53798;51.680;5.976;2022-08-21T02:43:27;36.68;33.74;47.84;;
66888;Laerm;53798;51.680;5.976;2022-08-21T02:45:57;37.61;33.74;52.33;;
66888;Laerm;53798;51.680;5.976;2022-08-21T02:48:29;39.74;34.91;59.39;;
66888;Laerm;53798;51.680;5.976;2022-08-21T02:51:00;38.22;35.20;45.74;;
66888;Laerm;53798;51.680;5.976;2022-08-21T02:53:29;52.27;34.86;67.40;;
66888;Laerm;53798;51.680;5.976;2022-08-21T02:55:59;55.32;35.11;73.09;;
66888;Laerm;53798;51.680;5.976;2022-08-21T02:58:33;56.09;36.07;74.06;;
66888;Laerm;53798;51.680;5.976;2022-08-21T03:01:05;59.74;36.17;77.59;;
66888;Laerm;53798;51.680;5.976;2022-08-21T03:03:39;38.26;34.78;47.46;;
66888;Laerm;53798;51.680;5.976;2022-08-21T03:06:12;37.47;34.19;46.15;;
66888;Laerm;53798;51.680;5.976;2022-08-21T03:08:40;60.84;34.36;80.40;;
66888;Laerm;53798;51.680;5.976;2022-08-21T03:11:09;37.84;34.20;46.13;;
66888;Laerm;53798;51.680;5.976;2022-08-21T03:13:37;56.71;34.62;75.04;;
66888;Laerm;53798;51.680;5.976;2022-08-21T03:16:07;56.93;34.03;73.75;;
66888;Laerm;53798;51.680;5.976;2022-08-21T03:18:37;57.92;35.05;72.75;;
66888;Laerm;53798;51.680;5.976;2022-08-21T03:21:06;52.05;34.41;69.32;;
66888;Laerm;53798;51.680;5.976;2022-08-21T03:23:33;57.21;34.89;74.95;;
66888;Laerm;53798;51.680;5.976;2022-08-21T03:26:01;54.44;35.52;71.76;;
66888;Laerm;53798;51.680;5.976;2022-08-21T03:28:28;50.43;35.72;65.53;;
66888;Laerm;53798;51.680;5.976;2022-08-21T03:30:55;38.63;35.60;47.44;;
66888;Laerm;53798;51.680;5.976;2022-08-21T03:33:23;56.94;35.48;74.82;;
66888;Laerm;53798;51.680;5.976;2022-08-21T03:35:59;41.55;35.74;53.31;;
66888;Laerm;53798;51.680;5.976;2022-08-21T03:38:29;60.08;36.74;76.85;;
66888;Laerm;53798;51.680;5.976;2022-08-21T03:40:58;47.05;35.65;68.59;;
66888;Laerm;53798;51.680;5.976;2022-08-21T03:43:26;38.44;35.54;46.44;;
66888;Laerm;53798;51.680;5.976;2022-08-21T03:46:03;59.65;35.86;75.49;;
66888;Laerm;53798;51.680;5.976;2022-08-21T03:48:32;59.93;35.34;74.19;;
66888;Laerm;53798;51.680;5.976;2022-08-21T03:50:59;38.48;34.88;50.54;;
66888;Laerm;53798;51.680;5.976;2022-08-21T03:53:26;39.38;34.00;46.90;;
66888;Laerm;53798;51.680;5.976;2022-08-21T03:55:54;55.49;33.79;73.21;;
66888;Laerm;53798;51.680;5.976;2022-08-21T03:58:24;37.40;33.07;45.29;;
66888;Laerm;53798;51.680;5.976;2022-08-21T04:00:56;57.37;32.03;76.35;;
66888;Laerm;53798;51.680;5.976;2022-08-21T04:03:25;52.09;32.99;68.63;;
66888;Laerm;53798;51.680;5.976;2022-08-21T04:05:52;36.29;33.03;47.54;;
66888;Laerm;53798;51.680;5.976;2022-08-21T04:08:19;36.36;33.10;47.03;;
66888;Laerm;53798;51.680;5.976;2022-08-21T04:10:51;56.01;34.88;76.01;;
66888;Laerm;53798;51.680;5.976;2022-08-21T04:13:20;41.71;34.13;55.82;;
66888;Laerm;53798;51.680;5.976;2022-08-21T04:15:48;58.72;34.01;81.31;;
66888;Laerm;53798;51.680;5.976;2022-08-21T04:18:21;40.88;35.42;54.60;;
66888;Laerm;53798;51.680;5.976;2022-08-21T04:20:51;43.56;35.68;57.86;;
66888;Laerm;53798;51.680;5.976;2022-08-21T04:23:21;55.06;35.02;72.29;;
66888;Laerm;53798;51.680;5.976;2022-08-21T04:25:52;54.99;34.92;73.56;;
66888;Laerm;53798;51.680;5.976;2022-08-21T04:28:21;58.26;34.91;75.74;;
66888;Laerm;53798;51.680;5.976;2022-08-21T04:30:53;55.68;34.93;75.16;;
66888;Laerm;53798;51.680;5.976;2022-08-21T04:33:22;61.64;34.81;79.48;;
66888;Laerm;53798;51.680;5.976;2022-08-21T04:35:50;58.18;35.07;77.30;;
66888;Laerm;53798;51.680;5.976;2022-08-21T04:38:18;41.34;34.92;54.29;;
66888;Laerm;53798;51.680;5.976;2022-08-21T04:40:45;39.79;34.53;52.63;;
66888;Laerm;53798;51.680;5.976;2022-08-21T04:43:13;42.31;35.01;54.90;;
66888;Laerm;53798;51.680;5.976;2022-08-21T04:45:45;44.45;34.88;58.73;;
66888;Laerm;53798;51.680;5.976;2022-08-21T04:48:16;43.59;35.04;58.11;;
66888;Laerm;53798;51.680;5.976;2022-08-21T04:50:57;59.69;34.40;79.87;;
66888;Laerm;53798;51.680;5.976;2022-08-21T04:53:33;59.46;34.12;77.16;;
66888;Laerm;53798;51.680;5.976;2022-08-21T04:56:12;41.65;33.73;60.52;;
66888;Laerm;53798;51.680;5.976;2022-08-21T04:58:42;38.23;33.63;54.61;;
66888;Laerm;53798;51.680;5.976;2022-08-21T05:01:15;43.71;34.35;59.40;;
66888;Laerm;53798;51.680;5.976;2022-08-21T05:03:48;39.19;34.35;55.68;;
66888;Laerm;53798;51.680;5.976;2022-08-21T05:06:17;39.47;34.62;52.29;;
66888;Laerm;53798;51.680;5.976;2022-08-21T05:08:47;40.09;33.84;53.61;;
66888;Laerm;53798;51.680;5.976;2022-08-21T05:11:15;39.99;33.97;51.86;;
66888;Laerm;53798;51.680;5.976;2022-08-21T05:13:45;59.08;34.01;77.85;;
66888;Laerm;53798;51.680;5.976;2022-08-21T05:16:12;61.88;34.00;77.97;;
66888;Laerm;53798;51.680;5.976;2022-08-21T05:18:39;43.70;33.19;56.46;;
66888;Laerm;53798;51.680;5.976;2022-08-21T05:21:06;45.47;34.06;64.65;;
66888;Laerm;53798;51.680;5.976;2022-08-21T05:23:33;57.43;33.30;74.77;;
66888;Laerm;53798;51.680;5.976;2022-08-21T05:26:01;48.49;33.82;59.80;;
66888;Laerm;53798;51.680;5.976;2022-08-21T05:28:28;57.27;33.77;75.48;;
66888;Laerm;53798;51.680;5.976;2022-08-21T05:30:55;56.55;35.32;72.30;;
66888;Laerm;53798;51.680;5.976;2022-08-21T05:33:23;43.73;33.77;57.92;;
66888;Laerm;53798;51.680;5.976;2022-08-21T05:35:52;62.62;34.38;81.11;;
66888;Laerm;53798;51.680;5.976;2022-08-21T05:38:23;42.63;34.11;56.67;;
66888;Laerm;53798;51.680;5.976;2022-08-21T05:40:51;63.18;34.01;80.85;;
66888;Laerm;53798;51.680;5.976;2022-08-21T05:43:18;60.41;34.03;77.96;;
66888;Laerm;53798;51.680;5.976;2022-08-21T05:45:48;60.57;34.58;76.64;;
66888;Laerm;53798;51.680;5.976;2022-08-21T05:48:28;56.27;34.08;75.48;;
66888;Laerm;53798;51.680;5.976;2022-08-21T05:50:55;41.40;34.54;56.13;;
66888;Laerm;53798;51.680;5.976;2022-08-21T05:53:23;45.29;34.21;64.54;;
66888;Laerm;53798;51.680;5.976;2022-08-21T05:55:51;41.82;34.01;63.54;;
66888;Laerm;53798;51.680;5.976;2022-08-21T05:58:21;41.66;34.16;61.73;;
66888;Laerm;53798;51.680;5.976;2022-08-21T06:00:51;56.12;33.99;75.00;;
66888;Laerm;53798;51.680;5.976;2022-08-21T06:03:29;42.59;33.68;59.13;;
66888;Laerm;53798;51.680;5.976;2022-08-21T06:05:57;42.55;34.03;58.67;;
66888;Laerm;53798;51.680;5.976;2022-08-21T06:08:25;66.69;36.57;84.56;;
66888;Laerm;53798;51.680;5.976;2022-08-21T06:10:55;58.63;34.17;76.57;;
66888;Laerm;53798;51.680;5.976;2022-08-21T06:13:26;52.40;33.43;68.67;;
66888;Laerm;53798;51.680;5.976;2022-08-21T06:16:11;46.27;33.04;66.42;;
66888;Laerm;53798;51.680;5.976;2022-08-21T06:18:43;41.74;33.42;57.34;;
66888;Laerm;53798;51.680;5.976;2022-08-21T06:21:12;39.75;33.64;50.82;;
66888;Laerm;53798;51.680;5.976;2022-08-21T06:23:42;40.49;34.87;61.82;;
66888;Laerm;53798;51.680;5.976;2022-08-21T06:26:12;58.15;34.68;77.47;;
66888;Laerm;53798;51.680;5.976;2022-08-21T06:28:42;60.85;34.51;77.76;;
66888;Laerm;53798;51.680;5.976;2022-08-21T06:31:22;63.08;33.99;81.13;;
66888;Laerm;53798;51.680;5.976;2022-08-21T06:33:49;58.59;35.31;77.93;;
66888;Laerm;53798;51.680;5.976;2022-08-21T06:36:18;62.02;34.86;78.60;;
66888;Laerm;53798;51.680;5.976;2022-08-21T06:38:49;61.49;35.27;79.85;;
66888;Laerm;53798;51.680;5.976;2022-08-21T06:41:20;41.64;34.69;62.33;;
66888;Laerm;53798;51.680;5.976;2022-08-21T06:43:54;53.97;34.49;68.55;;
66888;Laerm;53798;51.680;5.976;2022-08-21T06:46:25;59.06;34.35;79.20;;
66888;Laerm;53798;51.680;5.976;2022-08-21T06:48:52;58.20;34.05;72.82;;
66888;Laerm;53798;51.680;5.976;2022-08-21T06:51:20;53.70;33.74;69.66;;
66888;Laerm;53798;51.680;5.976;2022-08-21T06:53:49;66.58;35.54;83.90;;
66888;Laerm;53798;51.680;5.976;2022-08-21T06:56:16;60.21;34.82;77.99;;
66888;Laerm;53798;51.680;5.976;2022-08-21T06:58:43;62.02;35.06;78.23;;
66888;Laerm;53798;51.680;5.976;2022-08-21T07:01:13;49.70;35.25;72.70;;
66888;Laerm;53798;51.680;5.976;2022-08-21T07:03:43;62.97;38.50;78.79;;
66888;Laerm;53798;51.680;5.976;2022-08-21T07:06:11;43.86;35.20;58.26;;
66888;Laerm;53798;51.680;5.976;2022-08-21T07:08:39;62.69;36.20;79.53;;
66888;Laerm;53798;51.680;5.976;2022-08-21T07:11:17;53.36;35.23;69.83;;
66888;Laerm;53798;51.680;5.976;2022-08-21T07:13:45;52.01;36.86;67.59;;
66888;Laerm;53798;51.680;5.976;2022-08-21T07:16:12;60.34;36.06;74.19;;
66888;Laerm;53798;51.680;5.976;2022-08-21T07:18:40;63.42;36.63;76.89;;
66888;Laerm;53798;51.680;5.976;2022-08-21T07:21:09;60.49;36.05;78.55;;
66888;Laerm;53798;51.680;5.976;2022-08-21T07:23:41;63.06;37.00;79.06;;
66888;Laerm;53798;51.680;5.976;2022-08-21T07:26:10;62.09;38.02;79.81;;
66888;Laerm;53798;51.680;5.976;2022-08-21T07:28:38;66.93;37.35;81.11;;
66888;Laerm;53798;51.680;5.976;2022-08-21T07:31:06;62.97;36.20;80.56;;
66888;Laerm;53798;51.680;5.976;2022-08-21T07:33:34;63.52;37.51;76.65;;
66888;Laerm;53798;51.680;5.976;2022-08-21T07:36:03;64.45;37.56;83.66;;
66888;Laerm;53798;51.680;5.976;2022-08-21T07:38:30;62.16;36.03;77.31;;
66888;Laerm;53798;51.680;5.976;2022-08-21T07:41:00;63.38;38.11;78.76;;
66888;Laerm;53798;51.680;5.976;2022-08-21T07:43:29;58.57;35.57;75.60;;
66888;Laerm;53798;51.680;5.976;2022-08-21T07:45:56;68.49;37.51;84.48;;
66888;Laerm;53798;51.680;5.976;2022-08-21T07:48:24;53.28;35.16;69.98;;
66888;Laerm;53798;51.680;5.976;2022-08-21T07:50:51;61.02;34.70;76.03;;
66888;Laerm;53798;51.680;5.976;2022-08-21T07:53:18;61.54;36.04;74.61;;
66888;Laerm;53798;51.680;5.976;2022-08-21T07:55:45;58.06;35.91;72.32;;
66888;Laerm;53798;51.680;5.976;2022-08-21T07:58:12;62.48;38.00;78.09;;
66888;Laerm;53798;51.680;5.976;2022-08-21T08:00:40;66.15;38.55;77.98;;
66888;Laerm;53798;51.680;5.976;2022-08-21T08:03:07;59.66;35.85;77.89;;
66888;Laerm;53798;51.680;5.976;2022-08-21T08:05:36;60.64;35.58;75.46;;
66888;Laerm;53798;51.680;5.976;2022-08-21T08:08:07;59.61;34.69;77.79;;
66888;Laerm;53798;51.680;5.976;2022-08-21T08:10:37;60.57;36.05;78.52;;
66888;Laerm;53798;51.680;5.976;2022-08-21T08:13:05;64.05;36.53;78.97;;
66888;Laerm;53798;51.680;5.976;2022-08-21T08:15:37;66.86;38.07;80.66;;
66888;Laerm;53798;51.680;5.976;2022-08-21T08:18:04;63.89;35.41;80.15;;
66888;Laerm;53798;51.680;5.976;2022-08-21T08:20:31;67.34;39.92;80.87;;
66888;Laerm;53798;51.680;5.976;2022-08-21T08:22:58;62.32;39.18;77.50;;
66888;Laerm;53798;51.680;5.976;2022-08-21T08:25:27;66.46;37.75;79.42;;
66888;Laerm;53798;51.680;5.976;2022-08-21T08:28:04;62.15;36.21;75.42;;
66888;Laerm;53798;51.680;5.976;2022-08-21T08:30:46;61.93;36.69;76.74;;
66888;Laerm;53798;51.680;5.976;2022-08-21T08:33:15;63.61;36.30;78.10;;
66888;Laerm;53798;51.680;5.976;2022-08-21T08:35:46;70.34;40.02;86.49;;
66888;Laerm;53798;51.680;5.976;2022-08-21T08:38:18;65.69;40.49;83.97;;
66888;Laerm;53798;51.680;5.976;2022-08-21T08:41:14;67.43;41.38;81.39;;
66888;Laerm;53798;51.680;5.976;2022-08-21T08:43:50;61.79;37.11;76.19;;
66888;Laerm;53798;51.680;5.976;2022-08-21T08:46:31;64.06;39.18;77.89;;
66888;Laerm;53798;51.680;5.976;2022-08-21T08:52:28;65.69;39.43;79.19;;
66888;Laerm;53798;51.680;5.976;2022-08-21T08:55:18;67.45;40.73;79.04;;
66888;Laerm;53798;51.680;5.976;2022-08-21T08:57:54;62.23;39.11;80.36;;
66888;Laerm;53798;51.680;5.976;2022-08-21T09:00:23;62.79;39.68;77.09;;
66888;Laerm;53798;51.680;5.976;2022-08-21T09:02:56;61.73;39.59;73.72;;
66888;Laerm;53798;51.680;5.976;2022-08-21T09:05:46;62.71;40.13;75.61;;
66888;Laerm;53798;51.680;5.976;2022-08-21T09:11:42;67.45;49.21;80.25;;
66888;Laerm;53798;51.680;5.976;2022-08-21T09:15:29;67.99;39.05;82.65;;
66888;Laerm;53798;51.680;5.976;2022-08-21T09:23:44;65.41;37.91;79.55;;
66888;Laerm;53798;51.680;5.976;2022-08-21T09:26:18;61.44;38.69;75.02;;
66888;Laerm;53798;51.680;5.976;2022-08-21T09:28:58;64.17;39.13;79.65;;
66888;Laerm;53798;51.680;5.976;2022-08-21T09:31:35;64.19;39.50;76.84;;
66888;Laerm;53798;51.680;5.976;2022-08-21T09:34:10;65.38;38.43;78.59;;
66888;Laerm;53798;51.680;5.976;2022-08-21T09:36:49;57.55;38.11;79.35;;
66888;Laerm;53798;51.680;5.976;2022-08-21T09:39:39;69.10;39.80;93.99;;
66888;Laerm;53798;51.680;5.976;2022-08-21T09:42:24;62.64;39.22;75.61;;
66888;Laerm;53798;51.680;5.976;2022-08-21T09:45:17;64.28;40.16;77.08;;
66888;Laerm;53798;51.680;5.976;2022-08-21T09:47:44;66.95;40.70;81.81;;
66888;Laerm;53798;51.680;5.976;2022-08-21T09:50:28;61.53;36.47;76.66;;
66888;Laerm;53798;51.680;5.976;2022-08-21T09:53:00;66.99;40.64;78.72;;
66888;Laerm;53798;51.680;5.976;2022-08-21T09:55:37;66.43;38.11;79.19;;
66888;Laerm;53798;51.680;5.976;2022-08-21T09:58:33;63.57;37.60;77.86;;
66888;Laerm;53798;51.680;5.976;2022-08-21T10:01:06;67.45;40.01;79.01;;
66888;Laerm;53798;51.680;5.976;2022-08-21T10:03:34;70.59;43.68;84.71;;
66888;Laerm;53798;51.680;5.976;2022-08-21T10:06:06;69.23;38.64;95.53;;
66888;Laerm;53798;51.680;5.976;2022-08-21T10:08:38;64.54;38.53;80.45;;
66888;Laerm;53798;51.680;5.976;2022-08-21T10:11:13;61.33;38.44;76.75;;
66888;Laerm;53798;51.680;5.976;2022-08-21T10:14:12;63.82;38.22;78.30;;
66888;Laerm;53798;51.680;5.976;2022-08-21T10:17:04;66.32;43.02;82.85;;
66888;Laerm;53798;51.680;5.976;2022-08-21T10:29:07;65.11;42.18;77.51;;
66888;Laerm;53798;51.680;5.976;2022-08-21T10:35:12;66.62;39.74;78.16;;
66888;Laerm;53798;51.680;5.976;2022-08-21T10:47:54;65.06;35.48;80.53;;
66888;Laerm;53798;51.680;5.976;2022-08-21T10:55:39;63.56;37.23;78.88;;
66888;Laerm;53798;51.680;5.976;2022-08-21T10:58:22;64.53;41.63;76.17;;
66888;Laerm;53798;51.680;5.976;2022-08-21T11:01:00;66.16;39.63;80.28;;
66888;Laerm;53798;51.680;5.976;2022-08-21T11:03:45;65.15;40.73;78.16;;
66888;Laerm;53798;51.680;5.976;2022-08-21T11:06:23;64.69;40.61;76.05;;
66888;Laerm;53798;51.680;5.976;2022-08-21T11:08:58;65.97;36.67;80.72;;
66888;Laerm;53798;51.680;5.976;2022-08-21T11:11:42;64.11;36.95;77.80;;
66888;Laerm;53798;51.680;5.976;2022-08-21T11:14:48;74.39;36.36;96.28;;
66888;Laerm;53798;51.680;5.976;2022-08-21T11:17:36;61.87;39.11;75.07;;
66888;Laerm;53798;51.680;5.976;2022-08-21T11:20:11;64.70;38.99;78.39;;
66888;Laerm;53798;51.680;5.976;2022-08-21T11:23:00;66.15;39.30;81.87;;
66888;Laerm;53798;51.680;5.976;2022-08-21T11:25:53;67.57;39.07;82.69;;
66888;Laerm;53798;51.680;5.976;2022-08-21T11:28:33;66.99;37.58;81.69;;
66888;Laerm;53798;51.680;5.976;2022-08-21T11:31:48;62.65;37.65;78.55;;
66888;Laerm;53798;51.680;5.976;2022-08-21T11:35:03;65.84;40.81;77.18;;
66888;Laerm;53798;51.680;5.976;2022-08-21T11:38:01;64.09;38.36;78.49;;
66888;Laerm;53798;51.680;5.976;2022-08-21T11:41:03;64.59;37.20;78.46;;
66888;Laerm;53798;51.680;5.976;2022-08-21T12:04:34;67.39;39.21;82.29;;
66888;Laerm;53798;51.680;5.976;2022-08-21T12:07:47;67.81;41.99;78.00;;
66888;Laerm;53798;51.680;5.976;2022-08-21T12:10:18;63.95;39.89;79.99;;
66888;Laerm;53798;51.680;5.976;2022-08-21T12:12:49;66.22;42.63;76.86;;
66888;Laerm;53798;51.680;5.976;2022-08-21T12:18:02;67.54;49.74;81.43;;
66888;Laerm;53798;51.680;5.976;2022-08-21T12:26:09;68.48;38.20;81.30;;
66888;Laerm;53798;51.680;5.976;2022-08-21T12:28:39;63.97;41.26;85.00;;
66888;Laerm;53798;51.680;5.976;2022-08-21T12:31:23;65.39;40.20;81.27;;
66888;Laerm;53798;51.680;5.976;2022-08-21T12:33:57;64.86;40.55;77.42;;
66888;Laerm;53798;51.680;5.976;2022-08-21T12:36:45;60.25;35.45;79.16;;
66888;Laerm;53798;51.680;5.976;2022-08-21T12:39:23;67.49;36.71;85.23;;
66888;Laerm;53798;51.680;5.976;2022-08-21T12:44:50;65.34;37.03;78.44;;
66888;Laerm;53798;51.680;5.976;2022-08-21T12:47:56;65.16;38.32;79.71;;
66888;Laerm;53798;51.680;5.976;2022-08-21T12:50:38;64.10;38.83;75.80;;
66888;Laerm;53798;51.680;5.976;2022-08-21T12:53:31;66.56;38.88;80.29;;
66888;Laerm;53798;51.680;5.976;2022-08-21T12:56:28;64.78;40.24;78.85;;
66888;Laerm;53798;51.680;5.976;2022-08-21T12:59:03;65.66;39.79;76.81;;
66888;Laerm;53798;51.680;5.976;2022-08-21T13:01:38;67.04;41.15;83.52;;
66888;Laerm;53798;51.680;5.976;2022-08-21T13:04:17;64.67;38.54;78.45;;
66888;Laerm;53798;51.680;5.976;2022-08-21T13:06:53;60.75;36.41;75.97;;
66888;Laerm;53798;51.680;5.976;2022-08-21T13:09:28;59.31;36.74;75.93;;
66888;Laerm;53798;51.680;5.976;2022-08-21T13:11:57;62.44;39.88;75.61;;
66888;Laerm;53798;51.680;5.976;2022-08-21T13:14:34;66.04;43.21;78.77;;
66888;Laerm;53798;51.680;5.976;2022-08-21T13:17:14;64.34;38.36;82.93;;
66888;Laerm;53798;51.680;5.976;2022-08-21T13:20:06;63.87;38.29;80.53;;
66888;Laerm;53798;51.680;5.976;2022-08-21T13:22:43;64.85;40.73;76.98;;
66888;Laerm;53798;51.680;5.976;2022-08-21T13:25:13;60.39;37.49;73.75;;
66888;Laerm;53798;51.680;5.976;2022-08-21T13:27:45;63.66;37.44;78.04;;
66888;Laerm;53798;51.680;5.976;2022-08-21T13:30:23;62.83;36.43;77.51;;
66888;Laerm;53798;51.680;5.976;2022-08-21T13:32:58;64.90;37.95;79.37;;
66888;Laerm;53798;51.680;5.976;2022-08-21T13:35:52;67.51;35.93;85.16;;
66888;Laerm;53798;51.680;5.976;2022-08-21T13:38:34;64.88;35.41;79.62;;
66888;Laerm;53798;51.680;5.976;2022-08-21T13:41:23;62.71;37.92;77.01;;
66888;Laerm;53798;51.680;5.976;2022-08-21T13:44:16;62.28;36.36;78.13;;
66888;Laerm;53798;51.680;5.976;2022-08-21T13:46:49;64.21;38.06;77.47;;
66888;Laerm;53798;51.680;5.976;2022-08-21T13:49:19;65.17;36.93;80.40;;
66888;Laerm;53798;51.680;5.976;2022-08-21T13:51:48;61.62;37.64;76.09;;
66888;Laerm;53798;51.680;5.976;2022-08-21T13:54:37;64.36;40.58;77.54;;
66888;Laerm;53798;51.680;5.976;2022-08-21T13:57:30;64.75;38.42;78.69;;
66888;Laerm;53798;51.680;5.976;2022-08-21T14:00:27;63.94;36.59;77.69;;
66888;Laerm;53798;51.680;5.976;2022-08-21T14:03:06;66.42;37.25;79.94;;
66888;Laerm;53798;51.680;5.976;2022-08-21T14:05:42;63.07;37.01;77.39;;
66888;Laerm;53798;51.680;5.976;2022-08-21T14:08:27;55.79;34.47;74.78;;
66888;Laerm;53798;51.680;5.976;2022-08-21T14:11:00;66.97;35.62;85.84;;
66888;Laerm;53798;51.680;5.976;2022-08-21T14:13:49;63.79;35.18;80.52;;
66888;Laerm;53798;51.680;5.976;2022-08-21T14:16:23;63.69;39.74;77.12;;
66888;Laerm;53798;51.680;5.976;2022-08-21T14:22:44;61.46;42.61;76.58;;
66888;Laerm;53798;51.680;5.976;2022-08-21T14:25:29;59.97;40.02;77.46;;
66888;Laerm;53798;51.680;5.976;2022-08-21T14:28:27;65.36;41.11;78.37;;
66888;Laerm;53798;51.680;5.976;2022-08-21T14:30:56;64.48;37.68;76.56;;
66888;Laerm;53798;51.680;5.976;2022-08-21T14:33:32;60.97;35.91;75.08;;
66888;Laerm;53798;51.680;5.976;2022-08-21T14:35:59;65.11;41.19;79.13;;
66888;Laerm;53798;51.680;5.976;2022-08-21T14:38:29;64.97;42.17;75.23;;
66888;Laerm;53798;51.680;5.976;2022-08-21T14:41:18;63.38;37.67;76.61;;
66888;Laerm;53798;51.680;5.976;2022-08-21T14:43:46;63.64;38.87;78.55;;
66888;Laerm;53798;51.680;5.976;2022-08-21T14:46:29;59.80;39.44;73.45;;
66888;Laerm;53798;51.680;5.976;2022-08-21T14:49:00;61.38;37.30;73.64;;
66888;Laerm;53798;51.680;5.976;2022-08-21T14:51:27;63.73;34.96;80.25;;
66888;Laerm;53798;51.680;5.976;2022-08-21T14:53:58;61.36;34.90;75.87;;
66888;Laerm;53798;51.680;5.976;2022-08-21T14:56:25;65.69;37.98;78.59;;
66888;Laerm;53798;51.680;5.976;2022-08-21T14:59:06;65.69;38.20;76.73;;
66888;Laerm;53798;51.680;5.976;2022-08-21T15:01:41;63.49;35.56;81.51;;
66888;Laerm;53798;51.680;5.976;2022-08-21T15:04:10;61.93;35.76;75.27;;
66888;Laerm;53798;51.680;5.976;2022-08-21T15:06:38;64.52;42.10;76.58;;
66888;Laerm;53798;51.680;5.976;2022-08-21T15:09:06;61.20;36.87;77.41;;
66888;Laerm;53798;51.680;5.976;2022-08-21T15:11:36;62.50;37.70;77.47;;
66888;Laerm;53798;51.680;5.976;2022-08-21T15:14:22;65.16;37.00;81.07;;
66888;Laerm;53798;51.680;5.976;2022-08-21T15:16:52;64.78;37.08;77.80;;
66888;Laerm;53798;51.680;5.976;2022-08-21T15:19:22;58.17;38.87;75.28;;
66888;Laerm;53798;51.680;5.976;2022-08-21T15:21:55;61.75;36.74;74.91;;
66888;Laerm;53798;51.680;5.976;2022-08-21T15:24:22;67.10;37.08;82.52;;
66888;Laerm;53798;51.680;5.976;2022-08-21T15:26:54;64.42;37.03;77.98;;
66888;Laerm;53798;51.680;5.976;2022-08-21T15:29:22;63.81;37.71;78.35;;
66888;Laerm;53798;51.680;5.976;2022-08-21T15:32:02;61.72;37.76;74.73;;
66888;Laerm;53798;51.680;5.976;2022-08-21T15:34:30;64.24;39.07;76.44;;
66888;Laerm;53798;51.680;5.976;2022-08-21T15:36:58;63.14;36.80;78.83;;